LSZC Airport Information

Runway Information
Runway 07L Length 6561 ft width 130 ft
Elevation 1475 ft Threshold 200 ft Heading 62
Runway 25R Length 6561 ft Width 130 ft
Elevation 1435 ft Threshold 200 ft Heading 242
Runway 07R Length 4921 ft width 130 ft
Elevation 1475 ft Threshold 0 ft Heading 62
Runway 25L Length 4921 ft Width 130 ft
Elevation 1445 ft Threshold 0 ft Heading 242
Airport Frequencies
Type Air to Air Name INFO Frequency 134.125 MHZ
Type ARR ALPNAC Name Alpnach To Frequency 128.475 MHZ
Type ARR EMMEN Name Emmen Towe Frequency 120.425 MHZ
Type FIS Name Zurich Inf Frequency 124.7 MHZ
Type GCA Name ARR/DEP Frequency 140.65 MHZ
Type TWR Name TWR Frequency 119.625 MHZ
Airport Navaids
Airport Weather Information & NOTAM
ADDS - METARS form results

(0113 UTC 25 March 2019)
Data provider http://aviationweather.gov/metar/data/
 
METAR text: LSZC 250050Z AUTO VRB01KT CAVOK 08/03 Q1021
Conditions at: LSZC (BUOCHS , CH) observed 0050 UTC 25 March 2019
Temperature: 8.0°C (46°F)
Dewpoint: 3.0°C (37°F) [RH = 71%]
Pressure (altimeter): 30.15 inches Hg (1021.0 mb)
Winds: variable direction winds at 1 MPH (1 knots; 0.5 m/s)
Visibility: 6 or more miles (10+ km)
Ceiling: ceiling and visibility are OK
Clouds: unknown
Weather: no significant weather observed at this time

METAR text: LSZC 250020Z AUTO VRB03KT CAVOK 06/03 Q1021
Conditions at: LSZC (BUOCHS , CH) observed 0020 UTC 25 March 2019
Temperature: 6.0°C (43°F)
Dewpoint: 3.0°C (37°F) [RH = 81%]
Pressure (altimeter): 30.15 inches Hg (1021.0 mb)
Winds: variable direction winds at 3 MPH (3 knots; 1.5 m/s)
Visibility: 6 or more miles (10+ km)
Ceiling: ceiling and visibility are OK
Clouds: unknown
Weather: no significant weather observed at this time